Airfield :
LOGIN :

Register | Disclaimer

   EN    FR    IT 

 










Legend :    VFR   Marginal VFR   IFR   Intensive IFR   Very Intensive IFR
Visi :
Ceiling :
>= 8 km
>= 3000ft
5 to 8 km
1000 to 3000 ft
1500m to 5 km
500 to 1000 ft
800 to 1500m
200 to 500 ft
< 800m
< 200 ft
Symbols :   Thunderstorms  Fog  Heavy snow  Heavy precipitations  Wind > 20 kt
SIGMETs :     Misc.  Thunderstorms  Icing  Turbulence  Mountain Waves  Volcanic Ashes






- Airport Elevation : 15 ft
- IATA code : BHD


EGAC - George Best Belfast City

CURRENT METAR :
  • 260450Z AUTO 20013G19KT 9000 -RA OVC014/// 10/09 Q1007

EXPIRED METARs :
  • 260420Z AUTO 19012KT 9999 -RA SCT015/// OVC023/// 10/08 Q1007
  • 260350Z AUTO 19010G15KT 5000 -DZRA FEW024/// BKN028/// BKN034/// 10/08 Q1007 RERA
  • 260320Z AUTO 19012KT 5000 -RA FEW028/// BKN034/// OVC040/// 10/08 Q1008
  • 260250Z AUTO 20011KT 8000 -RA OVC034/// 10/08 Q1008
  • 260220Z AUTO 21010KT 9999 -RA SCT040/// 10/08 Q1009

Expired Forecast.
ATIS : +44 02890 935 124



MET'MAP, your aeronautical weather chart ! - Copyright ORBIFLY December 2007 - Disclaimer

ORBIFLY MET'MAP TEAM :

Programming & Development : Alexandra Zaïnal
Concept & original design : Baudouin d'Aumeries
Assistance for programming : Marc-Olivier Méhu
Technical & hardware support : Manuel Goepfert

Contact : metmap@orbifly.com




SOURCES & CREDITS :

   NOAA